sensor_id;sensor_type;location;lat;lon;timestamp;P1;durP1;ratioP1;P2;durP2;ratioP2
10452;SDS011;5274;51.992;8.518;2023-10-31T00:01:37;6.90;;;6.28;;
10452;SDS011;5274;51.992;8.518;2023-10-31T00:04:03;6.85;;;6.32;;
10452;SDS011;5274;51.992;8.518;2023-10-31T00:06:29;6.95;;;6.35;;
10452;SDS011;5274;51.992;8.518;2023-10-31T00:08:55;6.60;;;6.20;;
10452;SDS011;5274;51.992;8.518;2023-10-31T00:11:21;6.85;;;6.18;;
10452;SDS011;5274;51.992;8.518;2023-10-31T00:13:47;6.30;;;5.90;;
10452;SDS011;5274;51.992;8.518;2023-10-31T00:16:13;6.90;;;6.40;;
10452;SDS011;5274;51.992;8.518;2023-10-31T00:18:39;7.30;;;6.80;;
10452;SDS011;5274;51.992;8.518;2023-10-31T00:21:05;7.10;;;6.63;;
10452;SDS011;5274;51.992;8.518;2023-10-31T00:23:31;6.63;;;6.13;;
10452;SDS011;5274;51.992;8.518;2023-10-31T00:25:57;7.40;;;6.70;;
10452;SDS011;5274;51.992;8.518;2023-10-31T00:28:23;7.30;;;6.70;;
10452;SDS011;5274;51.992;8.518;2023-10-31T00:30:49;7.30;;;6.75;;
10452;SDS011;5274;51.992;8.518;2023-10-31T00:33:15;7.10;;;6.60;;
10452;SDS011;5274;51.992;8.518;2023-10-31T00:35:41;7.60;;;7.00;;
10452;SDS011;5274;51.992;8.518;2023-10-31T00:38:08;8.43;;;7.65;;
10452;SDS011;5274;51.992;8.518;2023-10-31T00:40:34;8.00;;;7.30;;
10452;SDS011;5274;51.992;8.518;2023-10-31T00:42:59;7.80;;;7.20;;
10452;SDS011;5274;51.992;8.518;2023-10-31T00:45:26;8.95;;;7.25;;
10452;SDS011;5274;51.992;8.518;2023-10-31T00:47:51;8.63;;;7.80;;
10452;SDS011;5274;51.992;8.518;2023-10-31T00:50:17;8.23;;;7.53;;
10452;SDS011;5274;51.992;8.518;2023-10-31T00:52:43;8.90;;;8.02;;
10452;SDS011;5274;51.992;8.518;2023-10-31T00:55:09;8.00;;;7.30;;
10452;SDS011;5274;51.992;8.518;2023-10-31T00:57:35;8.18;;;7.47;;
10452;SDS011;5274;51.992;8.518;2023-10-31T01:00:01;8.10;;;7.50;;
10452;SDS011;5274;51.992;8.518;2023-10-31T01:02:27;8.00;;;7.30;;
10452;SDS011;5274;51.992;8.518;2023-10-31T01:04:53;7.80;;;7.20;;
10452;SDS011;5274;51.992;8.518;2023-10-31T01:07:19;7.80;;;7.05;;
10452;SDS011;5274;51.992;8.518;2023-10-31T01:09:45;7.90;;;7.30;;
10452;SDS011;5274;51.992;8.518;2023-10-31T01:12:11;8.20;;;7.40;;
10452;SDS011;5274;51.992;8.518;2023-10-31T01:14:37;8.23;;;7.45;;
10452;SDS011;5274;51.992;8.518;2023-10-31T01:17:03;8.80;;;8.00;;
10452;SDS011;5274;51.992;8.518;2023-10-31T01:19:29;8.50;;;7.78;;
10452;SDS011;5274;51.992;8.518;2023-10-31T01:21:55;8.38;;;7.63;;
10452;SDS011;5274;51.992;8.518;2023-10-31T01:24:21;8.60;;;7.90;;
10452;SDS011;5274;51.992;8.518;2023-10-31T01:26:48;7.82;;;7.22;;
10452;SDS011;5274;51.992;8.518;2023-10-31T01:29:14;8.77;;;8.07;;
10452;SDS011;5274;51.992;8.518;2023-10-31T01:31:43;8.07;;;7.47;;
10452;SDS011;5274;51.992;8.518;2023-10-31T01:34:09;8.25;;;7.65;;
10452;SDS011;5274;51.992;8.518;2023-10-31T01:36:34;8.23;;;7.53;;
10452;SDS011;5274;51.992;8.518;2023-10-31T01:39:00;8.07;;;7.38;;
10452;SDS011;5274;51.992;8.518;2023-10-31T01:41:26;8.70;;;7.90;;
10452;SDS011;5274;51.992;8.518;2023-10-31T01:43:52;8.52;;;7.93;;
10452;SDS011;5274;51.992;8.518;2023-10-31T01:46:18;8.15;;;7.53;;
10452;SDS011;5274;51.992;8.518;2023-10-31T01:48:44;8.43;;;7.82;;
10452;SDS011;5274;51.992;8.518;2023-10-31T01:51:10;9.05;;;8.35;;
10452;SDS011;5274;51.992;8.518;2023-10-31T01:53:36;9.60;;;8.80;;
10452;SDS011;5274;51.992;8.518;2023-10-31T01:56:03;10.05;;;9.15;;
10452;SDS011;5274;51.992;8.518;2023-10-31T01:58:29;10.40;;;9.65;;
10452;SDS011;5274;51.992;8.518;2023-10-31T02:00:57;10.32;;;9.55;;
10452;SDS011;5274;51.992;8.518;2023-10-31T02:03:23;11.68;;;10.68;;
10452;SDS011;5274;51.992;8.518;2023-10-31T02:05:50;11.48;;;10.57;;
10452;SDS011;5274;51.992;8.518;2023-10-31T02:08:16;11.32;;;10.52;;
10452;SDS011;5274;51.992;8.518;2023-10-31T02:10:42;11.65;;;10.73;;
10452;SDS011;5274;51.992;8.518;2023-10-31T02:13:12;13.68;;;12.57;;
10452;SDS011;5274;51.992;8.518;2023-10-31T02:15:38;13.50;;;12.38;;
10452;SDS011;5274;51.992;8.518;2023-10-31T02:18:04;13.15;;;12.15;;
10452;SDS011;5274;51.992;8.518;2023-10-31T02:20:30;11.82;;;10.93;;
10452;SDS011;5274;51.992;8.518;2023-10-31T02:22:56;10.60;;;9.80;;
10452;SDS011;5274;51.992;8.518;2023-10-31T02:25:22;9.80;;;9.10;;
10452;SDS011;5274;51.992;8.518;2023-10-31T02:27:47;9.18;;;8.57;;
10452;SDS011;5274;51.992;8.518;2023-10-31T02:30:13;8.60;;;7.90;;
10452;SDS011;5274;51.992;8.518;2023-10-31T02:32:40;8.98;;;8.25;;
10452;SDS011;5274;51.992;8.518;2023-10-31T02:35:06;8.30;;;7.68;;
10452;SDS011;5274;51.992;8.518;2023-10-31T02:37:33;8.40;;;7.90;;
10452;SDS011;5274;51.992;8.518;2023-10-31T02:39:59;7.75;;;7.25;;
10452;SDS011;5274;51.992;8.518;2023-10-31T02:42:25;8.05;;;7.55;;
10452;SDS011;5274;51.992;8.518;2023-10-31T02:44:51;7.22;;;6.82;;
10452;SDS011;5274;51.992;8.518;2023-10-31T02:47:17;6.90;;;6.40;;
10452;SDS011;5274;51.992;8.518;2023-10-31T02:49:43;6.18;;;5.88;;
10452;SDS011;5274;51.992;8.518;2023-10-31T02:52:09;6.60;;;6.20;;
10452;SDS011;5274;51.992;8.518;2023-10-31T02:54:35;6.35;;;6.05;;
10452;SDS011;5274;51.992;8.518;2023-10-31T02:57:01;6.22;;;5.93;;
10452;SDS011;5274;51.992;8.518;2023-10-31T02:59:27;6.60;;;6.20;;
10452;SDS011;5274;51.992;8.518;2023-10-31T03:01:55;6.40;;;6.10;;
10452;SDS011;5274;51.992;8.518;2023-10-31T03:04:21;6.80;;;6.30;;
10452;SDS011;5274;51.992;8.518;2023-10-31T03:06:47;6.00;;;5.60;;
10452;SDS011;5274;51.992;8.518;2023-10-31T03:09:13;5.53;;;5.32;;
10452;SDS011;5274;51.992;8.518;2023-10-31T03:11:39;6.28;;;5.70;;
10452;SDS011;5274;51.992;8.518;2023-10-31T03:14:05;5.72;;;5.53;;
10452;SDS011;5274;51.992;8.518;2023-10-31T03:16:31;5.57;;;5.20;;
10452;SDS011;5274;51.992;8.518;2023-10-31T03:18:57;5.60;;;5.30;;
10452;SDS011;5274;51.992;8.518;2023-10-31T03:21:24;5.40;;;5.20;;
10452;SDS011;5274;51.992;8.518;2023-10-31T03:23:50;5.60;;;5.30;;
10452;SDS011;5274;51.992;8.518;2023-10-31T03:26:18;5.22;;;4.95;;
10452;SDS011;5274;51.992;8.518;2023-10-31T03:28:44;5.32;;;5.13;;
10452;SDS011;5274;51.992;8.518;2023-10-31T03:31:10;5.10;;;4.80;;
10452;SDS011;5274;51.992;8.518;2023-10-31T03:33:36;5.22;;;5.03;;
10452;SDS011;5274;51.992;8.518;2023-10-31T03:36:02;5.38;;;5.10;;
10452;SDS011;5274;51.992;8.518;2023-10-31T03:38:28;5.40;;;5.20;;
10452;SDS011;5274;51.992;8.518;2023-10-31T03:40:54;5.70;;;5.40;;
10452;SDS011;5274;51.992;8.518;2023-10-31T03:43:20;5.35;;;5.15;;
10452;SDS011;5274;51.992;8.518;2023-10-31T03:45:46;5.80;;;5.30;;
10452;SDS011;5274;51.992;8.518;2023-10-31T03:48:12;5.43;;;5.22;;
10452;SDS011;5274;51.992;8.518;2023-10-31T03:50:38;5.50;;;5.30;;
10452;SDS011;5274;51.992;8.518;2023-10-31T03:53:04;5.10;;;4.90;;
10452;SDS011;5274;51.992;8.518;2023-10-31T03:55:30;5.40;;;5.10;;
10452;SDS011;5274;51.992;8.518;2023-10-31T03:57:56;5.70;;;5.40;;
10452;SDS011;5274;51.992;8.518;2023-10-31T04:00:22;6.05;;;5.70;;
10452;SDS011;5274;51.992;8.518;2023-10-31T04:02:48;5.57;;;5.28;;
10452;SDS011;5274;51.992;8.518;2023-10-31T04:05:14;5.40;;;5.10;;
10452;SDS011;5274;51.992;8.518;2023-10-31T04:07:40;5.72;;;5.45;;
10452;SDS011;5274;51.992;8.518;2023-10-31T04:10:06;5.97;;;5.60;;
10452;SDS011;5274;51.992;8.518;2023-10-31T04:12:33;6.50;;;6.20;;
10452;SDS011;5274;51.992;8.518;2023-10-31T04:14:59;6.57;;;6.22;;
10452;SDS011;5274;51.992;8.518;2023-10-31T04:17:25;6.40;;;6.00;;
10452;SDS011;5274;51.992;8.518;2023-10-31T04:19:51;6.40;;;6.10;;
10452;SDS011;5274;51.992;8.518;2023-10-31T04:22:16;6.65;;;6.25;;
10452;SDS011;5274;51.992;8.518;2023-10-31T04:24:42;7.07;;;6.68;;
10452;SDS011;5274;51.992;8.518;2023-10-31T04:27:08;7.20;;;6.72;;
10452;SDS011;5274;51.992;8.518;2023-10-31T04:29:34;7.18;;;6.78;;
10452;SDS011;5274;51.992;8.518;2023-10-31T04:32:00;6.93;;;6.47;;
10452;SDS011;5274;51.992;8.518;2023-10-31T04:34:26;6.95;;;6.55;;
10452;SDS011;5274;51.992;8.518;2023-10-31T04:36:52;7.70;;;7.10;;
10452;SDS011;5274;51.992;8.518;2023-10-31T04:39:18;7.97;;;7.40;;
10452;SDS011;5274;51.992;8.518;2023-10-31T04:41:44;7.55;;;6.95;;
10452;SDS011;5274;51.992;8.518;2023-10-31T04:44:10;7.13;;;6.68;;
10452;SDS011;5274;51.992;8.518;2023-10-31T04:46:36;7.57;;;6.95;;
10452;SDS011;5274;51.992;8.518;2023-10-31T04:49:02;7.93;;;7.38;;
10452;SDS011;5274;51.992;8.518;2023-10-31T04:51:32;8.40;;;7.70;;
10452;SDS011;5274;51.992;8.518;2023-10-31T04:53:58;10.77;;;7.55;;
10452;SDS011;5274;51.992;8.518;2023-10-31T04:56:24;9.82;;;7.95;;
10452;SDS011;5274;51.992;8.518;2023-10-31T04:58:50;10.35;;;9.32;;
10452;SDS011;5274;51.992;8.518;2023-10-31T05:01:16;8.70;;;8.10;;
10452;SDS011;5274;51.992;8.518;2023-10-31T05:03:42;8.07;;;7.47;;
10452;SDS011;5274;51.992;8.518;2023-10-31T05:06:08;10.10;;;9.23;;
10452;SDS011;5274;51.992;8.518;2023-10-31T05:08:34;10.27;;;9.27;;
10452;SDS011;5274;51.992;8.518;2023-10-31T05:11:00;11.65;;;10.55;;
10452;SDS011;5274;51.992;8.518;2023-10-31T05:13:26;13.00;;;10.90;;
10452;SDS011;5274;51.992;8.518;2023-10-31T05:15:51;11.23;;;9.88;;
10452;SDS011;5274;51.992;8.518;2023-10-31T05:18:17;11.70;;;10.75;;
10452;SDS011;5274;51.992;8.518;2023-10-31T05:20:43;11.25;;;10.35;;
10452;SDS011;5274;51.992;8.518;2023-10-31T05:23:09;12.07;;;10.88;;
10452;SDS011;5274;51.992;8.518;2023-10-31T05:25:35;12.52;;;11.30;;
10452;SDS011;5274;51.992;8.518;2023-10-31T05:28:02;12.52;;;11.25;;
10452;SDS011;5274;51.992;8.518;2023-10-31T05:30:28;12.68;;;11.32;;
10452;SDS011;5274;51.992;8.518;2023-10-31T05:32:54;11.80;;;10.82;;
10452;SDS011;5274;51.992;8.518;2023-10-31T05:35:20;12.00;;;11.00;;
10452;SDS011;5274;51.992;8.518;2023-10-31T05:37:46;10.90;;;9.80;;
10452;SDS011;5274;51.992;8.518;2023-10-31T05:40:12;12.13;;;10.98;;
10452;SDS011;5274;51.992;8.518;2023-10-31T05:42:39;12.85;;;10.45;;
10452;SDS011;5274;51.992;8.518;2023-10-31T05:45:05;14.07;;;11.10;;
10452;SDS011;5274;51.992;8.518;2023-10-31T05:47:31;12.55;;;11.30;;
10452;SDS011;5274;51.992;8.518;2023-10-31T05:49:58;14.65;;;12.38;;
10452;SDS011;5274;51.992;8.518;2023-10-31T05:52:27;13.20;;;11.75;;
10452;SDS011;5274;51.992;8.518;2023-10-31T05:54:53;15.52;;;12.70;;
10452;SDS011;5274;51.992;8.518;2023-10-31T05:57:19;14.10;;;12.60;;
10452;SDS011;5274;51.992;8.518;2023-10-31T05:59:45;14.30;;;13.00;;
10452;SDS011;5274;51.992;8.518;2023-10-31T06:02:11;15.27;;;13.48;;
10452;SDS011;5274;51.992;8.518;2023-10-31T06:04:37;15.38;;;13.68;;
10452;SDS011;5274;51.992;8.518;2023-10-31T06:07:03;15.32;;;13.82;;
10452;SDS011;5274;51.992;8.518;2023-10-31T06:09:29;15.98;;;14.27;;
10452;SDS011;5274;51.992;8.518;2023-10-31T06:11:55;16.92;;;15.13;;
10452;SDS011;5274;51.992;8.518;2023-10-31T06:14:21;18.65;;;14.50;;
10452;SDS011;5274;51.992;8.518;2023-10-31T06:16:47;17.45;;;14.80;;
10452;SDS011;5274;51.992;8.518;2023-10-31T06:19:13;18.05;;;15.20;;
10452;SDS011;5274;51.992;8.518;2023-10-31T06:21:39;17.33;;;15.55;;
10452;SDS011;5274;51.992;8.518;2023-10-31T06:24:05;19.13;;;15.65;;
10452;SDS011;5274;51.992;8.518;2023-10-31T06:26:31;16.65;;;14.95;;
10452;SDS011;5274;51.992;8.518;2023-10-31T06:28:57;19.40;;;15.98;;
10452;SDS011;5274;51.992;8.518;2023-10-31T06:31:23;17.55;;;15.63;;
10452;SDS011;5274;51.992;8.518;2023-10-31T06:33:49;17.27;;;15.52;;
10452;SDS011;5274;51.992;8.518;2023-10-31T06:36:15;16.83;;;15.02;;
10452;SDS011;5274;51.992;8.518;2023-10-31T06:38:41;17.30;;;15.40;;
10452;SDS011;5274;51.992;8.518;2023-10-31T06:41:07;16.38;;;14.77;;
10452;SDS011;5274;51.992;8.518;2023-10-31T06:43:33;16.73;;;14.75;;
10452;SDS011;5274;51.992;8.518;2023-10-31T06:45:59;16.55;;;14.75;;
10452;SDS011;5274;51.992;8.518;2023-10-31T06:48:27;18.73;;;14.85;;
10452;SDS011;5274;51.992;8.518;2023-10-31T06:50:53;17.67;;;14.55;;
10452;SDS011;5274;51.992;8.518;2023-10-31T06:53:19;15.88;;;14.18;;
10452;SDS011;5274;51.992;8.518;2023-10-31T06:55:45;16.50;;;14.50;;
10452;SDS011;5274;51.992;8.518;2023-10-31T06:58:11;16.30;;;14.73;;
10452;SDS011;5274;51.992;8.518;2023-10-31T07:00:37;15.98;;;14.27;;
10452;SDS011;5274;51.992;8.518;2023-10-31T07:03:03;15.52;;;13.93;;
10452;SDS011;5274;51.992;8.518;2023-10-31T07:05:34;15.85;;;14.30;;
10452;SDS011;5274;51.992;8.518;2023-10-31T07:08:00;15.30;;;13.70;;
10452;SDS011;5274;51.992;8.518;2023-10-31T07:10:26;15.90;;;13.93;;
10452;SDS011;5274;51.992;8.518;2023-10-31T07:12:51;15.18;;;13.73;;
10452;SDS011;5274;51.992;8.518;2023-10-31T07:15:17;18.23;;;14.05;;
10452;SDS011;5274;51.992;8.518;2023-10-31T07:17:43;16.52;;;13.68;;
10452;SDS011;5274;51.992;8.518;2023-10-31T07:20:09;15.40;;;13.90;;
10452;SDS011;5274;51.992;8.518;2023-10-31T07:22:35;14.00;;;12.50;;
10452;SDS011;5274;51.992;8.518;2023-10-31T07:25:01;13.82;;;12.60;;
10452;SDS011;5274;51.992;8.518;2023-10-31T07:27:28;12.40;;;11.27;;
10452;SDS011;5274;51.992;8.518;2023-10-31T07:29:54;15.07;;;12.18;;
10452;SDS011;5274;51.992;8.518;2023-10-31T07:32:20;11.68;;;10.63;;
10452;SDS011;5274;51.992;8.518;2023-10-31T07:34:47;11.23;;;10.13;;
10452;SDS011;5274;51.992;8.518;2023-10-31T07:37:13;13.35;;;10.98;;
10452;SDS011;5274;51.992;8.518;2023-10-31T07:39:38;9.50;;;8.70;;
10452;SDS011;5274;51.992;8.518;2023-10-31T07:42:04;9.98;;;9.18;;
10452;SDS011;5274;51.992;8.518;2023-10-31T07:44:30;9.88;;;9.02;;
10452;SDS011;5274;51.992;8.518;2023-10-31T07:46:56;9.18;;;8.30;;
10452;SDS011;5274;51.992;8.518;2023-10-31T07:49:22;8.90;;;8.10;;
10452;SDS011;5274;51.992;8.518;2023-10-31T07:51:48;8.88;;;8.20;;
10452;SDS011;5274;51.992;8.518;2023-10-31T07:54:14;8.63;;;7.93;;
10452;SDS011;5274;51.992;8.518;2023-10-31T07:56:41;8.48;;;7.88;;
10452;SDS011;5274;51.992;8.518;2023-10-31T07:59:07;7.90;;;7.40;;
10452;SDS011;5274;51.992;8.518;2023-10-31T08:01:33;8.43;;;7.63;;
10452;SDS011;5274;51.992;8.518;2023-10-31T08:04:00;7.63;;;7.03;;
10452;SDS011;5274;51.992;8.518;2023-10-31T08:06:26;7.40;;;6.90;;
10452;SDS011;5274;51.992;8.518;2023-10-31T08:08:52;7.50;;;7.00;;
10452;SDS011;5274;51.992;8.518;2023-10-31T08:11:18;7.68;;;7.18;;
10452;SDS011;5274;51.992;8.518;2023-10-31T08:13:44;7.97;;;7.30;;
10452;SDS011;5274;51.992;8.518;2023-10-31T08:16:11;7.72;;;7.13;;
10452;SDS011;5274;51.992;8.518;2023-10-31T08:18:42;7.72;;;7.32;;
10452;SDS011;5274;51.992;8.518;2023-10-31T08:21:08;7.78;;;7.28;;
10452;SDS011;5274;51.992;8.518;2023-10-31T08:23:34;7.95;;;7.45;;
10452;SDS011;5274;51.992;8.518;2023-10-31T08:26:00;7.60;;;7.20;;
10452;SDS011;5274;51.992;8.518;2023-10-31T08:28:26;7.38;;;6.90;;
10452;SDS011;5274;51.992;8.518;2023-10-31T08:30:53;7.35;;;6.95;;
10452;SDS011;5274;51.992;8.518;2023-10-31T08:33:19;8.13;;;7.53;;
10452;SDS011;5274;51.992;8.518;2023-10-31T08:35:45;7.63;;;7.13;;
10452;SDS011;5274;51.992;8.518;2023-10-31T08:38:12;7.50;;;7.00;;
10452;SDS011;5274;51.992;8.518;2023-10-31T08:40:38;7.80;;;7.25;;
10452;SDS011;5274;51.992;8.518;2023-10-31T08:43:04;7.63;;;7.13;;
10452;SDS011;5274;51.992;8.518;2023-10-31T08:45:32;8.32;;;7.78;;
10452;SDS011;5274;51.992;8.518;2023-10-31T08:47:58;8.23;;;7.65;;
10452;SDS011;5274;51.992;8.518;2023-10-31T08:50:24;8.43;;;7.93;;
10452;SDS011;5274;51.992;8.518;2023-10-31T08:52:50;8.00;;;7.50;;
10452;SDS011;5274;51.992;8.518;2023-10-31T08:55:16;8.45;;;7.85;;
10452;SDS011;5274;51.992;8.518;2023-10-31T08:57:42;7.72;;;7.13;;
10452;SDS011;5274;51.992;8.518;2023-10-31T09:00:08;7.20;;;6.63;;
10452;SDS011;5274;51.992;8.518;2023-10-31T09:02:34;7.88;;;7.28;;
10452;SDS011;5274;51.992;8.518;2023-10-31T09:05:00;7.95;;;7.38;;
10452;SDS011;5274;51.992;8.518;2023-10-31T09:07:26;8.40;;;7.75;;
10452;SDS011;5274;51.992;8.518;2023-10-31T09:09:52;7.95;;;7.43;;
10452;SDS011;5274;51.992;8.518;2023-10-31T09:12:18;8.18;;;7.47;;
10452;SDS011;5274;51.992;8.518;2023-10-31T09:14:44;8.40;;;7.80;;
10452;SDS011;5274;51.992;8.518;2023-10-31T09:17:10;8.18;;;7.57;;
10452;SDS011;5274;51.992;8.518;2023-10-31T09:19:37;9.52;;;8.30;;
10452;SDS011;5274;51.992;8.518;2023-10-31T09:22:03;8.25;;;7.65;;
10452;SDS011;5274;51.992;8.518;2023-10-31T09:24:29;9.20;;;8.30;;
10452;SDS011;5274;51.992;8.518;2023-10-31T09:26:55;8.75;;;7.75;;
10452;SDS011;5274;51.992;8.518;2023-10-31T09:29:21;10.00;;;8.10;;
10452;SDS011;5274;51.992;8.518;2023-10-31T09:31:47;11.70;;;8.90;;
10452;SDS011;5274;51.992;8.518;2023-10-31T09:34:13;9.95;;;8.95;;
10452;SDS011;5274;51.992;8.518;2023-10-31T09:36:39;9.13;;;8.20;;
10452;SDS011;5274;51.992;8.518;2023-10-31T09:39:05;9.70;;;8.70;;
10452;SDS011;5274;51.992;8.518;2023-10-31T09:41:31;9.25;;;8.23;;
10452;SDS011;5274;51.992;8.518;2023-10-31T09:43:57;11.02;;;10.00;;
10452;SDS011;5274;51.992;8.518;2023-10-31T09:46:23;10.02;;;9.02;;
10452;SDS011;5274;51.992;8.518;2023-10-31T09:48:49;15.07;;;10.73;;
10452;SDS011;5274;51.992;8.518;2023-10-31T09:51:16;11.10;;;9.82;;
10452;SDS011;5274;51.992;8.518;2023-10-31T09:53:44;12.23;;;9.77;;
10452;SDS011;5274;51.992;8.518;2023-10-31T09:56:10;11.98;;;10.77;;
10452;SDS011;5274;51.992;8.518;2023-10-31T09:58:36;11.70;;;10.52;;
10452;SDS011;5274;51.992;8.518;2023-10-31T10:01:04;13.48;;;10.85;;
10452;SDS011;5274;51.992;8.518;2023-10-31T10:03:30;11.65;;;10.48;;
10452;SDS011;5274;51.992;8.518;2023-10-31T10:05:56;11.55;;;10.45;;
10452;SDS011;5274;51.992;8.518;2023-10-31T10:08:23;11.48;;;10.35;;
10452;SDS011;5274;51.992;8.518;2023-10-31T10:10:50;12.30;;;11.10;;
10452;SDS011;5274;51.992;8.518;2023-10-31T10:13:17;12.20;;;10.88;;
10452;SDS011;5274;51.992;8.518;2023-10-31T10:15:44;13.45;;;11.85;;
10452;SDS011;5274;51.992;8.518;2023-10-31T10:18:10;11.75;;;10.63;;
10452;SDS011;5274;51.992;8.518;2023-10-31T10:20:36;12.70;;;11.40;;
10452;SDS011;5274;51.992;8.518;2023-10-31T10:23:16;14.02;;;11.10;;
10452;SDS011;5274;51.992;8.518;2023-10-31T10:25:42;17.67;;;12.38;;
10452;SDS011;5274;51.992;8.518;2023-10-31T10:28:08;13.00;;;11.70;;
10452;SDS011;5274;51.992;8.518;2023-10-31T10:30:37;13.32;;;11.90;;
10452;SDS011;5274;51.992;8.518;2023-10-31T10:33:03;14.18;;;12.05;;
10452;SDS011;5274;51.992;8.518;2023-10-31T10:35:29;14.90;;;12.02;;
10452;SDS011;5274;51.992;8.518;2023-10-31T10:37:55;13.38;;;11.68;;
10452;SDS011;5274;51.992;8.518;2023-10-31T10:40:22;14.13;;;11.70;;
10452;SDS011;5274;51.992;8.518;2023-10-31T10:42:48;14.00;;;12.60;;
10452;SDS011;5274;51.992;8.518;2023-10-31T10:45:16;14.27;;;12.75;;
10452;SDS011;5274;51.992;8.518;2023-10-31T10:47:47;15.75;;;13.40;;
10452;SDS011;5274;51.992;8.518;2023-10-31T10:50:13;13.73;;;12.35;;
10452;SDS011;5274;51.992;8.518;2023-10-31T10:52:54;13.75;;;12.45;;
10452;SDS011;5274;51.992;8.518;2023-10-31T10:55:23;14.25;;;11.95;;
10452;SDS011;5274;51.992;8.518;2023-10-31T10:58:00;15.40;;;12.77;;
10452;SDS011;5274;51.992;8.518;2023-10-31T11:00:26;14.35;;;12.90;;
10452;SDS011;5274;51.992;8.518;2023-10-31T11:02:52;12.18;;;10.98;;
10452;SDS011;5274;51.992;8.518;2023-10-31T11:05:19;12.75;;;11.55;;
10452;SDS011;5274;51.992;8.518;2023-10-31T11:07:45;15.68;;;12.85;;
10452;SDS011;5274;51.992;8.518;2023-10-31T11:10:12;15.45;;;12.88;;
10452;SDS011;5274;51.992;8.518;2023-10-31T11:12:38;14.63;;;13.13;;
10452;SDS011;5274;51.992;8.518;2023-10-31T11:15:04;14.77;;;13.18;;
10452;SDS011;5274;51.992;8.518;2023-10-31T11:17:31;14.45;;;12.52;;
10452;SDS011;5274;51.992;8.518;2023-10-31T11:19:59;14.57;;;13.10;;
10452;SDS011;5274;51.992;8.518;2023-10-31T11:22:25;14.90;;;13.30;;
10452;SDS011;5274;51.992;8.518;2023-10-31T11:24:51;14.40;;;13.05;;
10452;SDS011;5274;51.992;8.518;2023-10-31T11:27:17;14.70;;;13.25;;
10452;SDS011;5274;51.992;8.518;2023-10-31T11:29:44;14.48;;;13.13;;
10452;SDS011;5274;51.992;8.518;2023-10-31T11:32:10;14.25;;;12.93;;
10452;SDS011;5274;51.992;8.518;2023-10-31T11:34:39;15.43;;;13.95;;
10452;SDS011;5274;51.992;8.518;2023-10-31T11:40:14;15.07;;;13.68;;
10452;SDS011;5274;51.992;8.518;2023-10-31T11:42:40;15.35;;;13.75;;
10452;SDS011;5274;51.992;8.518;2023-10-31T11:45:10;15.30;;;13.70;;
10452;SDS011;5274;51.992;8.518;2023-10-31T11:47:48;15.15;;;13.63;;
10452;SDS011;5274;51.992;8.518;2023-10-31T11:50:15;15.90;;;14.23;;
10452;SDS011;5274;51.992;8.518;2023-10-31T11:52:41;15.05;;;13.55;;
10452;SDS011;5274;51.992;8.518;2023-10-31T11:55:10;15.98;;;14.48;;
10452;SDS011;5274;51.992;8.518;2023-10-31T11:57:36;17.27;;;15.40;;
10452;SDS011;5274;51.992;8.518;2023-10-31T12:00:03;16.38;;;14.88;;
10452;SDS011;5274;51.992;8.518;2023-10-31T12:02:29;16.02;;;14.30;;
10452;SDS011;5274;51.992;8.518;2023-10-31T12:05:06;17.08;;;15.52;;
10452;SDS011;5274;51.992;8.518;2023-10-31T12:07:41;15.52;;;14.00;;
10452;SDS011;5274;51.992;8.518;2023-10-31T12:10:07;15.88;;;14.27;;
10452;SDS011;5274;51.992;8.518;2023-10-31T12:12:33;15.48;;;13.98;;
10452;SDS011;5274;51.992;8.518;2023-10-31T12:15:08;15.63;;;14.13;;
10452;SDS011;5274;51.992;8.518;2023-10-31T12:17:35;16.38;;;14.68;;
10452;SDS011;5274;51.992;8.518;2023-10-31T12:20:04;16.38;;;14.23;;
10452;SDS011;5274;51.992;8.518;2023-10-31T12:22:30;15.68;;;14.05;;
10452;SDS011;5274;51.992;8.518;2023-10-31T12:25:09;15.50;;;14.00;;
10452;SDS011;5274;51.992;8.518;2023-10-31T12:27:48;14.82;;;13.38;;
10452;SDS011;5274;51.992;8.518;2023-10-31T12:30:15;15.27;;;13.88;;
10452;SDS011;5274;51.992;8.518;2023-10-31T12:32:41;13.50;;;12.20;;
10452;SDS011;5274;51.992;8.518;2023-10-31T12:35:08;15.15;;;12.18;;
10452;SDS011;5274;51.992;8.518;2023-10-31T12:37:35;16.30;;;12.23;;
10452;SDS011;5274;51.992;8.518;2023-10-31T12:40:01;12.75;;;11.45;;
10452;SDS011;5274;51.992;8.518;2023-10-31T12:42:29;11.85;;;10.75;;
10452;SDS011;5274;51.992;8.518;2023-10-31T12:44:56;12.02;;;11.10;;
10452;SDS011;5274;51.992;8.518;2023-10-31T12:47:24;12.45;;;11.35;;
10452;SDS011;5274;51.992;8.518;2023-10-31T12:52:48;11.52;;;10.52;;
10452;SDS011;5274;51.992;8.518;2023-10-31T12:55:16;13.43;;;12.02;;
10452;SDS011;5274;51.992;8.518;2023-10-31T12:57:42;13.45;;;12.25;;
10452;SDS011;5274;51.992;8.518;2023-10-31T13:00:09;12.57;;;11.48;;
10452;SDS011;5274;51.992;8.518;2023-10-31T13:02:37;13.00;;;11.80;;
10452;SDS011;5274;51.992;8.518;2023-10-31T13:05:08;12.88;;;11.77;;
10452;SDS011;5274;51.992;8.518;2023-10-31T13:07:34;13.10;;;11.80;;
10452;SDS011;5274;51.992;8.518;2023-10-31T13:10:00;13.82;;;12.52;;
10452;SDS011;5274;51.992;8.518;2023-10-31T13:12:26;13.75;;;12.52;;
10452;SDS011;5274;51.992;8.518;2023-10-31T13:14:53;15.45;;;13.30;;
10452;SDS011;5274;51.992;8.518;2023-10-31T13:17:19;15.13;;;13.13;;
10452;SDS011;5274;51.992;8.518;2023-10-31T13:19:45;15.48;;;13.95;;
10452;SDS011;5274;51.992;8.518;2023-10-31T13:22:11;14.88;;;13.15;;
10452;SDS011;5274;51.992;8.518;2023-10-31T13:24:37;15.05;;;13.60;;
10452;SDS011;5274;51.992;8.518;2023-10-31T13:27:04;15.55;;;13.75;;
10452;SDS011;5274;51.992;8.518;2023-10-31T13:29:31;16.50;;;14.32;;
10452;SDS011;5274;51.992;8.518;2023-10-31T13:31:58;15.52;;;13.60;;
10452;SDS011;5274;51.992;8.518;2023-10-31T13:34:24;14.70;;;13.40;;
10452;SDS011;5274;51.992;8.518;2023-10-31T13:36:50;17.17;;;14.43;;
10452;SDS011;5274;51.992;8.518;2023-10-31T13:39:17;16.15;;;14.55;;
10452;SDS011;5274;51.992;8.518;2023-10-31T13:41:43;17.27;;;14.25;;
10452;SDS011;5274;51.992;8.518;2023-10-31T13:44:09;16.17;;;14.50;;
10452;SDS011;5274;51.992;8.518;2023-10-31T13:46:35;16.55;;;13.95;;
10452;SDS011;5274;51.992;8.518;2023-10-31T13:49:00;15.63;;;14.05;;
10452;SDS011;5274;51.992;8.518;2023-10-31T13:51:28;15.48;;;13.93;;
10452;SDS011;5274;51.992;8.518;2023-10-31T13:53:54;18.23;;;14.32;;
10452;SDS011;5274;51.992;8.518;2023-10-31T13:56:20;17.83;;;16.00;;
10452;SDS011;5274;51.992;8.518;2023-10-31T13:58:46;19.83;;;15.70;;
10452;SDS011;5274;51.992;8.518;2023-10-31T14:01:13;18.33;;;14.88;;
10452;SDS011;5274;51.992;8.518;2023-10-31T14:03:39;16.55;;;14.77;;
10452;SDS011;5274;51.992;8.518;2023-10-31T14:06:05;17.33;;;14.82;;
10452;SDS011;5274;51.992;8.518;2023-10-31T14:08:31;16.58;;;14.88;;
10452;SDS011;5274;51.992;8.518;2023-10-31T14:10:57;20.05;;;15.60;;
10452;SDS011;5274;51.992;8.518;2023-10-31T14:13:23;17.10;;;15.00;;
10452;SDS011;5274;51.992;8.518;2023-10-31T14:15:49;17.30;;;15.40;;
10452;SDS011;5274;51.992;8.518;2023-10-31T14:18:15;16.88;;;14.95;;
10452;SDS011;5274;51.992;8.518;2023-10-31T14:20:41;16.98;;;14.95;;
10452;SDS011;5274;51.992;8.518;2023-10-31T14:23:07;17.25;;;15.50;;
10452;SDS011;5274;51.992;8.518;2023-10-31T14:25:33;18.00;;;15.35;;
10452;SDS011;5274;51.992;8.518;2023-10-31T14:27:59;16.75;;;14.98;;
10452;SDS011;5274;51.992;8.518;2023-10-31T14:30:25;20.77;;;13.95;;
10452;SDS011;5274;51.992;8.518;2023-10-31T14:32:51;18.23;;;14.38;;
10452;SDS011;5274;51.992;8.518;2023-10-31T14:35:18;18.92;;;15.25;;
10452;SDS011;5274;51.992;8.518;2023-10-31T14:37:43;18.35;;;14.55;;
10452;SDS011;5274;51.992;8.518;2023-10-31T14:40:10;17.77;;;14.55;;
10452;SDS011;5274;51.992;8.518;2023-10-31T14:42:36;20.10;;;16.35;;
10452;SDS011;5274;51.992;8.518;2023-10-31T14:45:02;18.08;;;14.52;;
10452;SDS011;5274;51.992;8.518;2023-10-31T14:47:28;19.00;;;15.25;;